Time;durP1;ratioP1;P1;durP2;ratioP2;P2;SDS_P1;SDS_P2;PMS_P1;PMS_P2;Temp;Humidity;BMP_temperature;BMP_pressure;BME280_temperature;BME280_humidity;BME280_pressure;Samples;Min_cycle;Max_cycle;Signal;HPM_P1;HPM_P2
2022/11/19 00:01:11;;;;;;;26.10;15.37;;;;;;;-2.76;72.68;99672.04;1778752;80;25588;-67
2022/11/19 00:03:39;;;;;;;24.35;14.38;;;;;;;-2.76;72.68;99672.04;1778573;80;25613;-68
2022/11/19 00:06:20;;;;;;;24.43;13.95;;;;;;;-2.76;72.70;99675.48;1778499;79;25613;-67
2022/11/19 00:08:46;;;;;;;24.67;13.62;;;;;;;-2.76;72.57;99677.33;1777450;80;28223;-67
2022/11/19 00:12:53;;;;;;;23.73;13.10;;;;;;;-2.77;72.44;99679.72;1778637;79;25559;-66
2022/11/19 00:13:49;;;;;;;21.40;12.40;;;;;;;-2.76;72.50;99682.63;1777905;80;25586;-66
2022/11/19 00:16:15;;;;;;;21.62;12.55;;;;;;;-2.76;72.53;99678.12;1781817;79;26134;-66
2022/11/19 00:18:41;;;;;;;19.75;12.00;;;;;;;-2.76;72.59;99686.07;1781874;79;30815;-66
2022/11/19 00:21:12;;;;;;;19.80;11.48;;;;;;;-2.75;72.44;99685.05;1781798;80;29577;-66
2022/11/19 00:23:39;;;;;;;18.23;11.65;;;;;;;-2.73;72.37;99684.81;1781755;80;25453;-65
2022/11/19 00:26:12;;;;;;;21.40;12.40;;;;;;;-2.72;72.37;99693.84;1781786;79;25609;-65
2022/11/19 00:28:40;;;;;;;21.42;12.82;;;;;;;-2.72;72.44;99697.81;1781572;80;25488;-66
2022/11/19 00:31:12;;;;;;;19.35;12.13;;;;;;;-2.71;72.56;99694.11;1781868;79;25407;-65
2022/11/19 00:33:41;;;;;;;21.70;13.28;;;;;;;-2.69;72.58;99691.23;1781560;80;27183;-65
2022/11/19 00:36:12;;;;;;;24.20;13.68;;;;;;;-2.68;72.70;99696.29;1781865;79;25759;-66
2022/11/19 00:38:39;;;;;;;22.73;13.80;;;;;;;-2.66;72.74;99701.35;1781977;79;25633;-66
2022/11/19 00:41:06;;;;;;;24.85;14.25;;;;;;;-2.66;72.61;99699.50;1781971;79;26231;-66
2022/11/19 00:43:48;;;;;;;26.20;15.20;;;;;;;-2.64;72.69;99692.65;1781992;80;25566;-66
2022/11/19 00:46:22;;;;;;;25.80;14.10;;;;;;;-2.65;72.72;99693.70;1782053;80;27575;-66
2022/11/19 00:48:51;;;;;;;26.15;14.15;;;;;;;-2.66;72.68;99701.35;1781934;79;25400;-66
2022/11/19 00:51:20;;;;;;;25.02;14.55;;;;;;;-2.67;72.64;99698.44;1782094;79;25206;-67
2022/11/19 00:53:47;;;;;;;23.05;13.55;;;;;;;-2.67;72.53;99700.56;1782069;79;26209;-67
2022/11/19 00:56:17;;;;;;;24.87;15.15;;;;;;;-2.68;72.34;99696.82;1782006;80;25417;-67
2022/11/19 00:58:47;;;;;;;27.75;14.33;;;;;;;-2.70;72.40;99697.05;1781951;80;29730;-68
2022/11/19 01:01:17;;;;;;;24.37;15.35;;;;;;;-2.71;72.21;99697.28;1781994;79;25631;-68
2022/11/19 01:03:46;;;;;;;;;;;;;;;-2.75;72.52;99694.31;1784648;79;25538;-68
2022/11/19 01:06:15;;;;;;;25.20;14.03;;;;;;;-2.79;72.49;99697.66;1781890;80;25587;-68
2022/11/19 01:08:42;;;;;;;25.60;14.68;;;;;;;-2.83;72.63;99698.64;1782099;79;25638;-68
2022/11/19 01:11:13;;;;;;;25.95;15.15;;;;;;;-2.87;72.75;99706.25;1781975;79;27423;-68
2022/11/19 01:13:40;;;;;;;25.68;15.38;;;;;;;-2.90;72.80;99711.22;1778668;79;25624;-68
2022/11/19 01:16:18;;;;;;;27.82;15.70;;;;;;;-2.92;72.89;99711.97;1778674;79;25555;-68
2022/11/19 01:18:48;;;;;;;27.62;15.63;;;;;;;-2.95;72.93;99717.73;1778427;80;25555;-69
2022/11/19 01:21:17;;;;;;;25.02;15.45;;;;;;;-2.98;72.81;99715.02;1778659;79;25424;-68
2022/11/19 01:23:45;;;;;;;25.17;15.13;;;;;;;-3.01;72.97;99714.98;1778775;79;27401;-68
2022/11/19 01:26:14;;;;;;;25.02;15.55;;;;;;;-3.02;73.04;99716.00;1778511;79;25610;-68
2022/11/19 01:28:42;;;;;;;25.05;15.80;;;;;;;-3.02;73.21;99717.33;1778613;79;25565;-68
2022/11/19 01:31:11;;;;;;;27.27;16.05;;;;;;;;;;1778588;80;25703;-68
2022/11/19 01:33:39;;;;;;;28.98;15.93;;;;;;;-3.01;73.41;99716.83;1778782;79;25568;-68
2022/11/19 01:36:11;;;;;;;26.25;16.42;;;;;;;-3.02;73.52;99719.98;1778636;80;27567;-68
2022/11/19 01:38:37;;;;;;;29.90;17.15;;;;;;;-3.02;73.52;99718.65;1778225;80;25635;-68
2022/11/19 01:41:05;;;;;;;29.50;15.93;;;;;;;-3.03;73.58;99715.73;1778651;79;25398;-68
2022/11/19 01:43:45;;;;;;;30.50;16.10;;;;;;;-3.05;73.42;99724.44;1778620;79;25534;-68
2022/11/19 01:46:16;;;;;;;27.82;16.17;;;;;;;-3.06;73.37;99722.02;1778621;79;25458;-68
2022/11/19 01:48:47;;;;;;;28.25;16.10;;;;;;;-3.08;73.48;99728.03;1778610;80;27627;-68
2022/11/19 01:51:22;;;;;;;24.75;15.68;;;;;;;-3.10;73.67;99727.47;1774293;80;25567;-68
2022/11/19 01:53:51;;;;;;;28.17;15.78;;;;;;;-3.12;73.48;99721.61;1778639;80;25528;-68
2022/11/19 01:56:20;;;;;;;26.48;15.38;;;;;;;-3.14;73.32;99716.55;1778583;79;25554;-67
2022/11/19 01:58:52;;;;;;;28.65;14.80;;;;;;;-3.14;73.33;99721.05;1778818;79;25147;-67
2022/11/19 02:01:20;;;;;;;28.62;15.90;;;;;;;-3.15;73.65;99716.78;1778761;80;27288;-67
2022/11/19 02:03:47;;;;;;;26.12;15.88;;;;;;;-3.16;73.77;99717.30;1778635;80;25610;-68
2022/11/19 02:06:13;;;;;;;25.57;15.25;;;;;;;-3.17;73.87;99719.66;1779356;79;25199;-67
2022/11/19 02:08:44;;;;;;;25.60;14.58;;;;;;;-3.17;74.08;99718.86;1779383;80;25499;-68
2022/11/19 02:11:21;;;;;;;20.52;13.10;;;;;;;-3.16;74.14;99721.80;1778930;80;25558;-67
2022/11/19 02:14:08;;;;;;;20.02;11.22;;;;;;;-3.17;73.86;99730.77;1778555;80;28236;-67
2022/11/19 02:16:57;;;;;;;20.77;12.18;;;;;;;-3.17;73.74;99726.80;1778564;79;25810;-66
2022/11/19 02:19:39;;;;;;;;;;;;;;;-3.16;73.73;99733.19;1781332;80;25397;-67
2022/11/19 02:22:34;;;;;;;21.12;12.40;;;;;;;-3.14;73.73;99725.81;1777160;80;26196;-67
2022/11/19 02:25:08;;;;;;;22.13;12.33;;;;;;;-3.19;73.66;99719.88;1777455;80;25424;-67
2022/11/19 02:27:43;;;;;;;21.55;12.10;;;;;;;-3.13;73.52;99726.11;1679917;85;29721;-67
2022/11/19 02:30:16;;;;;;;20.30;12.23;;;;;;;-3.13;73.45;99720.81;1679266;85;25641;-68
2022/11/19 02:33:06;;;;;;;26.70;13.88;;;;;;;-3.13;73.49;99719.50;1656906;85;25619;-67
2022/11/19 02:36:02;;;;;;;22.98;12.90;;;;;;;-3.10;73.61;99723.50;1680012;85;25602;-67
2022/11/19 02:38:45;;;;;;;23.57;13.83;;;;;;;-3.07;73.68;99723.05;1679951;85;25516;-67
2022/11/19 02:41:35;;;;;;;22.32;12.80;;;;;;;-3.05;73.70;99727.58;1679934;85;27553;-67
2022/11/19 02:44:59;;;;;;;21.77;14.33;;;;;;;-3.06;73.65;99730.75;1627940;88;25624;-67
2022/11/19 02:47:39;;;;;;;23.32;14.07;;;;;;;-3.04;73.72;99729.99;1628076;88;25509;-67
2022/11/19 02:50:29;;;;;;;22.75;13.15;;;;;;;-3.02;73.73;99723.15;1627082;88;25554;-67
2022/11/19 02:52:56;;;;;;;25.57;14.33;;;;;;;-3.00;73.77;99727.69;1627449;88;25606;-67
2022/11/19 02:55:23;;;;;;;23.15;14.60;;;;;;;-3.00;73.68;99723.71;1628081;88;27482;-67
2022/11/19 02:58:03;;;;;;;24.43;14.03;;;;;;;-2.99;73.72;99725.33;1628049;88;25770;-67
2022/11/19 03:06:20;;;;;;;24.37;14.93;;;;;;;-2.94;73.76;99728.61;1694445;83;25686;-68
2022/11/19 03:08:47;;;;;;;41.90;21.93;;;;;;;-2.95;73.73;99734.94;1716231;83;27900;-68
2022/11/19 03:11:27;;;;;;;27.30;15.93;;;;;;;-2.95;73.84;99737.05;1722270;83;25432;-68
2022/11/19 03:17:21;;;;;;;25.80;15.60;;;;;;;-2.92;74.08;99737.12;1712043;83;25608;-67
2022/11/19 03:20:08;;;;;;;29.37;16.25;;;;;;;-2.91;74.15;99748.80;1712088;83;25674;-67
2022/11/19 03:22:55;;;;;;;26.17;14.95;;;;;;;-2.90;74.15;99749.06;1754417;81;27540;-68
2022/11/19 03:25:42;;;;;;;25.02;15.93;;;;;;;-2.89;74.09;99755.19;1754112;81;26104;-67
2022/11/19 03:28:14;;;;;;;27.30;15.75;;;;;;;-2.88;74.14;99754.12;1754940;81;25539;-67
2022/11/19 03:30:43;;;;;;;27.95;16.45;;;;;;;-2.89;74.14;99757.30;1754877;81;25504;-67
2022/11/19 03:33:13;;;;;;;;;;;;;;;-2.88;74.18;99758.09;1757470;81;25343;-67
2022/11/19 03:35:49;;;;;;;30.43;17.73;;;;;;;-2.88;74.24;99762.89;1754939;81;27430;-67
2022/11/19 03:38:29;;;;;;;34.23;18.37;;;;;;;-2.87;74.28;99764.48;1754859;81;25567;-67
2022/11/19 03:40:57;;;;;;;34.30;18.48;;;;;;;-2.86;74.12;99762.63;1754921;81;25392;-67
2022/11/19 03:43:28;;;;;;;34.18;17.70;;;;;;;-2.85;74.19;99764.25;1754863;81;25710;-67
2022/11/19 03:45:58;;;;;;;32.03;18.57;;;;;;;-2.84;74.27;99759.26;1754909;81;25642;-67
2022/11/19 03:48:27;;;;;;;43.48;18.70;;;;;;;-2.85;74.20;99761.61;1754852;81;27491;-67
2022/11/19 03:51:04;;;;;;;34.67;18.90;;;;;;;-2.84;74.11;99771.17;1754921;81;25922;-68
2022/11/19 03:53:30;;;;;;;29.90;17.50;;;;;;;-2.85;74.10;99770.88;1754918;81;25597;-68
2022/11/19 03:56:04;;;;;;;28.95;17.07;;;;;;;-2.84;74.17;99776.47;1754821;81;25545;-67
2022/11/19 03:58:40;;;;;;;27.52;16.30;;;;;;;-2.85;74.15;99774.84;1754900;81;25393;-67
2022/11/19 04:01:09;;;;;;;32.93;17.85;;;;;;;-2.86;74.21;99783.31;1754895;81;27513;-67
2022/11/19 04:03:36;;;;;;;30.45;17.35;;;;;;;-2.85;74.16;99789.41;1754913;81;25438;-67
2022/11/19 04:06:04;;;;;;;25.92;15.70;;;;;;;-2.84;74.10;99796.31;1754821;81;25516;-67
2022/11/19 04:08:32;;;;;;;30.60;17.05;;;;;;;-2.84;74.07;99797.64;1754822;81;25471;-67
2022/11/19 04:10:58;;;;;;;30.17;16.15;;;;;;;-2.83;74.15;99793.94;1754895;81;25818;-67
2022/11/19 04:13:25;;;;;;;25.57;15.85;;;;;;;-2.84;74.04;99793.67;1765407;79;29662;-66
2022/11/19 04:15:51;;;;;;;27.98;16.20;;;;;;;-2.85;74.13;99796.81;1778654;80;25365;-66
2022/11/19 04:18:17;;;;;;;27.60;16.02;;;;;;;-2.85;74.21;99796.02;1778781;80;25389;-66
2022/11/19 04:20:45;;;;;;;28.35;16.65;;;;;;;-2.85;74.21;99792.05;1778740;80;34773;-66
2022/11/19 04:23:11;;;;;;;25.40;15.13;;;;;;;-2.88;74.06;99795.98;1750184;80;25630;-66
2022/11/19 04:25:39;;;;;;;25.23;15.85;;;;;;;-2.89;74.08;99794.89;1778772;80;27546;-66
2022/11/19 04:28:05;;;;;;;27.10;16.12;;;;;;;-2.89;74.20;99795.68;1778700;80;25752;-66
2022/11/19 04:30:31;;;;;;;29.87;16.15;;;;;;;-2.88;74.25;99798.62;1778740;80;25378;-67
2022/11/19 04:32:57;;;;;;;25.60;15.15;;;;;;;-2.88;74.31;99803.92;1778793;80;25570;-67
2022/11/19 04:35:24;;;;;;;23.75;14.85;;;;;;;-2.86;74.33;99797.05;1778756;80;25472;-67
2022/11/19 04:37:50;;;;;;;25.50;15.38;;;;;;;-2.86;74.27;99804.98;1778855;80;27594;-66
2022/11/19 04:40:16;;;;;;;25.90;14.47;;;;;;;-2.85;74.25;99804.75;1778632;80;25850;-67
2022/11/19 04:42:42;;;;;;;26.33;14.78;;;;;;;-2.85;74.11;99806.08;1778766;80;25445;-67
2022/11/19 04:45:10;;;;;;;24.85;14.18;;;;;;;-2.86;74.23;99812.92;1778772;80;27537;-67
2022/11/19 04:47:37;;;;;;;24.98;13.90;;;;;;;-2.87;74.24;99810.80;1778741;80;25566;-67
2022/11/19 04:50:06;;;;;;;29.30;16.32;;;;;;;-2.85;74.21;99815.88;1778724;80;27388;-67
2022/11/19 04:52:32;;;;;;;28.85;16.73;;;;;;;-2.85;74.07;99819.84;1778809;80;26062;-67
2022/11/19 04:54:59;;;;;;;28.60;16.17;;;;;;;-2.84;74.12;99824.11;1778714;80;25430;-67
2022/11/19 04:57:25;;;;;;;27.42;15.63;;;;;;;-2.84;74.22;99820.94;1778700;80;25622;-66
2022/11/19 04:59:51;;;;;;;26.42;15.10;;;;;;;-2.83;74.33;99823.06;1778724;80;25366;-66
2022/11/19 05:02:17;;;;;;;27.60;15.17;;;;;;;-2.82;74.45;99820.18;1778763;80;28028;-66
2022/11/19 05:04:43;;;;;;;26.33;16.12;;;;;;;-2.82;74.45;99818.86;1778646;80;25669;-66
2022/11/19 05:07:09;;;;;;;27.45;17.02;;;;;;;-2.79;74.45;99820.25;1778690;80;25407;-66
2022/11/19 05:09:35;;;;;;;28.85;16.82;;;;;;;-2.77;74.43;99822.14;1778729;80;25624;-67
2022/11/19 05:12:04;;;;;;;30.43;17.73;;;;;;;-2.77;74.40;99818.70;1778865;80;25519;-67
2022/11/19 05:14:30;;;;;;;28.90;17.00;;;;;;;-2.76;74.22;99822.94;1740674;81;27325;-67
2022/11/19 05:16:56;;;;;;;30.85;17.05;;;;;;;-2.75;74.27;99820.06;1763836;81;25621;-67
2022/11/19 05:19:22;;;;;;;28.47;16.85;;;;;;;-2.76;74.29;99819.77;1763861;81;25393;-67
2022/11/19 05:21:48;;;;;;;28.27;16.62;;;;;;;-2.76;74.34;99817.11;1763863;81;25443;-67
2022/11/19 05:24:14;;;;;;;29.23;16.52;;;;;;;-2.74;74.44;99816.39;1763988;80;25456;-66
2022/11/19 05:26:40;;;;;;;25.85;14.58;;;;;;;-2.73;74.40;99821.95;1763835;80;27320;-66
2022/11/19 05:29:06;;;;;;;26.05;14.98;;;;;;;-2.72;74.41;99810.86;1763770;80;25696;-67
2022/11/19 05:31:33;;;;;;;26.60;15.72;;;;;;;-2.72;74.22;99815.63;1763821;81;25538;-67
2022/11/19 05:33:59;;;;;;;25.32;14.47;;;;;;;-2.72;74.08;99817.48;1763815;81;25639;-67
2022/11/19 05:36:25;;;;;;;26.17;14.35;;;;;;;-2.74;74.00;99823.00;1763890;80;25541;-68
2022/11/19 05:38:51;;;;;;;25.03;14.53;;;;;;;-2.73;73.92;99821.16;1763859;80;27381;-67
2022/11/19 05:41:18;;;;;;;24.25;14.70;;;;;;;-2.76;74.05;99825.06;1763757;81;25532;-67
2022/11/19 05:43:44;;;;;;;24.07;15.15;;;;;;;-2.76;74.05;99822.41;1763851;80;25211;-67
2022/11/19 05:46:10;;;;;;;24.00;14.20;;;;;;;-2.76;74.12;99830.35;1763788;81;25394;-67
2022/11/19 05:48:36;;;;;;;22.07;14.65;;;;;;;-2.77;74.17;99831.94;1763888;81;25644;-67
2022/11/19 05:51:03;;;;;;;28.47;15.77;;;;;;;-2.77;74.26;99832.73;1763854;81;27373;-66
2022/11/19 05:53:29;;;;;;;25.12;15.88;;;;;;;-2.78;74.24;99840.37;1763828;80;25388;-67
2022/11/19 05:55:55;;;;;;;26.65;15.83;;;;;;;-2.78;74.28;99849.64;1763835;81;25514;-65
2022/11/19 05:58:21;;;;;;;28.57;16.07;;;;;;;-2.78;74.17;99846.99;1763806;81;26071;-65
2022/11/19 06:00:48;;;;;;;27.10;15.40;;;;;;;-2.76;74.33;99853.38;1763885;81;25587;-66
2022/11/19 06:03:14;;;;;;;26.12;15.08;;;;;;;-2.76;74.28;99856.83;1737623;81;27555;-66
2022/11/19 06:05:40;;;;;;;26.87;15.87;;;;;;;-2.76;74.24;99855.50;1763777;80;28926;-66
2022/11/19 06:08:07;;;;;;;23.90;15.05;;;;;;;-2.76;74.14;99862.13;1763830;80;25538;-66
2022/11/19 06:10:33;;;;;;;23.87;14.25;;;;;;;-2.76;74.16;99861.33;1763828;81;25580;-66
2022/11/19 06:12:59;;;;;;;24.35;14.38;;;;;;;-2.75;74.21;99866.92;1763814;81;25541;-66
2022/11/19 06:15:25;;;;;;;28.12;15.60;;;;;;;-2.74;74.23;99866.69;1754995;80;28018;-66
2022/11/19 06:17:52;;;;;;;24.40;14.68;;;;;;;-2.75;74.22;99878.30;1754905;81;25463;-66
2022/11/19 06:20:18;;;;;;;25.95;14.73;;;;;;;-2.73;74.16;99880.72;1754903;81;25588;-67
2022/11/19 06:22:44;;;;;;;26.57;15.40;;;;;;;-2.72;74.19;99881.02;1754873;81;25416;-67
2022/11/19 06:25:11;;;;;;;23.50;14.68;;;;;;;-2.72;74.22;99882.34;1754980;81;25192;-67
2022/11/19 06:27:37;;;;;;;25.85;14.63;;;;;;;-2.73;74.39;99888.14;1754910;81;27358;-67
2022/11/19 06:30:06;;;;;;;26.73;15.00;;;;;;;-2.72;74.26;99892.41;1754865;81;25676;-65
2022/11/19 06:32:33;;;;;;;28.92;15.60;;;;;;;-2.74;74.19;99897.14;1755261;81;25599;-66
2022/11/19 06:34:59;;;;;;;26.97;15.00;;;;;;;-2.71;74.30;99898.50;1755112;81;25651;-65
2022/11/19 06:37:25;;;;;;;29.35;15.95;;;;;;;-2.73;74.29;99905.34;1755051;81;25544;-65
2022/11/19 06:39:53;;;;;;;28.47;15.58;;;;;;;-2.73;74.21;99901.91;1754902;81;27373;-66
2022/11/19 06:42:37;;;;;;;25.30;15.10;;;;;;;-2.72;74.20;99910.15;1754845;81;25643;-66
2022/11/19 06:45:12;;;;;;;25.92;15.65;;;;;;;-2.71;74.26;99905.92;1754939;81;25616;-66
2022/11/19 06:47:40;;;;;;;25.88;14.87;;;;;;;-2.70;74.51;99913.36;1754903;81;25613;-65
2022/11/19 06:50:09;;;;;;;27.73;15.38;;;;;;;-2.70;74.48;99916.02;1754922;81;25428;-65
2022/11/19 06:52:35;;;;;;;20.97;11.33;;;;;;;-2.68;74.51;99920.02;1755160;81;27407;-65
2022/11/19 06:55:02;;;;;;;25.85;15.85;;;;;;;-2.66;74.55;99929.86;1754802;81;27209;-67
2022/11/19 06:57:28;;;;;;;27.90;15.48;;;;;;;-2.68;74.60;99924.00;1754884;81;25363;-65
2022/11/19 06:59:54;;;;;;;26.48;15.53;;;;;;;-2.66;74.74;99927.74;1754873;81;34777;-65
2022/11/19 07:02:20;;;;;;;27.48;15.50;;;;;;;-2.65;74.78;99931.48;1754954;81;25396;-65
2022/11/19 07:04:46;;;;;;;27.55;15.60;;;;;;;-2.63;74.86;99933.37;1754921;81;27359;-67
2022/11/19 07:07:13;;;;;;;26.00;15.88;;;;;;;-2.64;74.95;99927.81;1754761;81;25363;-67
2022/11/19 07:09:39;;;;;;;25.23;16.20;;;;;;;-2.61;75.06;99931.03;1754895;81;25601;-68
2022/11/19 07:12:08;;;;;;;27.55;16.07;;;;;;;-2.61;75.12;99937.66;1754886;81;25554;-66
2022/11/19 07:14:34;;;;;;;27.90;16.25;;;;;;;-2.61;75.11;99937.12;1754989;79;25200;-68
2022/11/19 07:17:01;;;;;;;31.20;17.60;;;;;;;-2.59;75.11;99940.87;1754896;81;27239;-66
2022/11/19 07:19:28;;;;;;;31.48;18.45;;;;;;;-2.60;75.21;99939.28;1754788;81;27276;-66
2022/11/19 07:21:54;;;;;;;26.40;16.77;;;;;;;-2.58;75.42;99945.14;1754861;81;25372;-66
2022/11/19 07:24:21;;;;;;;30.85;18.02;;;;;;;-2.56;75.72;99941.21;1754825;81;25371;-65
2022/11/19 07:26:48;;;;;;;28.73;17.42;;;;;;;-2.53;75.83;99945.25;1754907;81;25459;-65
2022/11/19 07:29:16;;;;;;;24.82;15.95;;;;;;;-2.54;75.66;99948.92;1754900;81;27570;-66
2022/11/19 07:31:42;;;;;;;27.82;15.85;;;;;;;-2.51;75.78;99951.12;1754775;81;25632;-66
2022/11/19 07:34:10;;;;;;;28.85;16.27;;;;;;;-2.53;75.74;99946.58;1754850;81;25567;-66
2022/11/19 07:36:37;;;;;;;30.30;16.48;;;;;;;-2.48;75.65;99957.29;1754859;81;25576;-66
2022/11/19 07:39:04;;;;;;;32.38;17.52;;;;;;;-2.48;75.48;99955.44;1754924;81;25674;-65
2022/11/19 07:44:17;;;;;;;25.68;15.90;;;;;;;-2.44;75.73;99958.42;1754799;81;25596;-66
2022/11/19 07:46:44;;;;;;;28.00;17.10;;;;;;;-2.40;75.61;99949.50;1754858;81;25479;-65
2022/11/19 07:49:11;;;;;;;25.40;15.40;;;;;;;-2.35;75.70;99957.55;1754841;81;25597;-65
2022/11/19 07:51:37;;;;;;;29.85;17.17;;;;;;;-2.31;75.97;99958.19;1754844;81;25637;-65
2022/11/19 07:54:08;;;;;;;28.67;17.60;;;;;;;-2.26;75.84;99964.13;1754866;81;27368;-65
2022/11/19 07:56:34;;;;;;;30.72;16.65;;;;;;;-2.23;75.98;99958.38;1754897;81;25712;-66
2022/11/19 07:59:02;;;;;;;32.00;17.77;;;;;;;-2.19;76.00;99952.88;1754835;81;25591;-65
2022/11/19 08:01:29;;;;;;;27.80;16.35;;;;;;;-2.11;76.16;99957.83;1754857;81;25426;-66
2022/11/19 08:03:56;;;;;;;30.48;17.87;;;;;;;-2.04;75.96;99955.05;1754859;81;25528;-65
2022/11/19 08:06:26;;;;;;;28.02;16.65;;;;;;;-1.98;75.96;99955.95;1754838;81;27316;-65
2022/11/19 08:08:56;;;;;;;32.93;17.77;;;;;;;-1.93;75.89;99961.36;1754789;81;25457;-65
2022/11/19 08:11:23;;;;;;;30.68;17.60;;;;;;;-1.85;76.22;99958.34;1754867;81;25559;-65
2022/11/19 08:13:51;;;;;;;30.75;17.32;;;;;;;-1.73;76.50;99962.30;1755690;79;25589;-65
2022/11/19 08:19:09;;;;;;;35.80;17.80;;;;;;;-1.56;75.99;99947.23;1778787;80;29456;-65
2022/11/19 08:21:44;;;;;;;28.42;15.85;;;;;;;-1.47;75.99;99948.19;1778035;80;25632;-65
2022/11/19 08:24:12;;;;;;;30.43;16.97;;;;;;;-1.37;75.94;99949.16;1778793;80;25624;-66
2022/11/19 08:26:39;;;;;;;34.73;18.20;;;;;;;-1.22;76.36;99960.58;1778964;80;25422;-65
2022/11/19 08:29:07;;;;;;;28.17;16.48;;;;;;;-1.05;76.71;99961.93;1778804;80;25597;-66
2022/11/19 08:31:34;;;;;;;30.80;17.17;;;;;;;-0.88;76.58;99959.28;1778763;79;27323;-65
2022/11/19 08:34:02;;;;;;;29.25;17.95;;;;;;;-0.77;75.77;99962.40;1778667;80;25651;-65
2022/11/19 08:36:29;;;;;;;28.42;17.23;;;;;;;-0.72;74.90;99962.98;1778777;80;25661;-65
2022/11/19 08:38:59;;;;;;;29.87;16.90;;;;;;;-0.71;74.04;99963.80;1778683;80;27475;-66
2022/11/19 08:44:12;;;;;;;27.45;16.93;;;;;;;-0.81;73.54;99973.20;1778825;80;28350;-67
2022/11/19 08:46:40;;;;;;;30.08;19.42;;;;;;;-0.82;73.66;99976.09;1778583;80;25730;-66
2022/11/19 08:49:07;;;;;;;30.60;18.25;;;;;;;-0.76;74.01;99973.81;1778779;80;25424;-66
2022/11/19 08:51:34;;;;;;;27.82;16.40;;;;;;;-0.73;73.87;99979.16;1778750;80;25598;-67
2022/11/19 08:54:00;;;;;;;32.88;18.05;;;;;;;-0.72;73.79;99978.91;1778762;80;25412;-66
2022/11/19 08:56:26;;;;;;;30.40;18.17;;;;;;;-0.67;73.48;99984.84;1778730;80;27335;-65
2022/11/19 08:58:53;;;;;;;34.85;20.12;;;;;;;-0.63;73.51;99987.28;1778774;80;25459;-62
2022/11/19 09:01:20;;;;;;;35.58;20.05;;;;;;;-0.64;73.33;99987.02;1778899;80;25531;-62
2022/11/19 09:03:46;;;;;;;31.73;18.65;;;;;;;-0.58;73.38;99985.53;1778892;80;25573;-62
2022/11/19 09:06:13;;;;;;;31.80;17.40;;;;;;;-0.55;73.20;99984.22;1778920;80;25468;-62
2022/11/19 09:08:41;;;;;;;32.00;17.77;;;;;;;-0.50;73.21;99982.17;1778874;80;26850;-63
2022/11/19 09:11:11;;;;;;;28.47;16.40;;;;;;;-0.44;73.55;99977.23;1778826;80;25446;-63
2022/11/19 09:13:37;;;;;;;30.72;17.30;;;;;;;-0.34;73.79;99976.05;1778892;80;25455;-62
2022/11/19 09:16:07;;;;;;;33.25;17.32;;;;;;;-0.24;73.34;99982.02;1759522;80;26038;-63
2022/11/19 09:18:37;;;;;;;28.77;15.10;;;;;;;-0.19;73.30;99976.77;1755168;81;25631;-62
2022/11/19 09:21:02;;;;;;;28.45;15.32;;;;;;;-0.12;72.46;99984.56;1754644;81;27373;-63
2022/11/19 09:23:27;;;;;;;30.57;17.87;;;;;;;-0.13;71.76;99987.76;1754915;81;25547;-63
2022/11/19 09:26:01;;;;;;;29.30;16.93;;;;;;;-0.12;71.76;99990.70;1755009;81;28353;-62
2022/11/19 09:28:30;;;;;;;29.95;17.50;;;;;;;-0.13;71.53;99990.42;1754530;81;26244;-63
2022/11/19 09:31:04;;;;;;;29.00;16.45;;;;;;;-0.13;71.54;99994.41;1755161;81;25646;-63
2022/11/19 09:33:34;;;;;;;31.50;18.27;;;;;;;-0.15;71.51;99990.37;1754949;81;27347;-63
2022/11/19 09:36:01;;;;;;;27.00;15.83;;;;;;;-0.16;71.68;99989.57;1754898;81;25618;-62
2022/11/19 09:38:30;;;;;;;33.38;19.30;;;;;;;-0.22;71.33;99982.59;1754932;81;25649;-62
2022/11/19 09:40:57;;;;;;;33.48;19.23;;;;;;;-0.27;71.17;99987.30;1754847;81;27460;-62
2022/11/19 09:43:54;;;;;;;28.87;17.23;;;;;;;-0.31;71.16;99980.05;1755016;81;25480;-62
2022/11/19 09:46:34;;;;;;;29.15;17.05;;;;;;;-0.33;71.00;99988.27;1724165;83;27335;-62
2022/11/19 09:49:09;;;;;;;30.52;18.37;;;;;;;-0.38;70.84;99988.20;1724441;83;25663;-62
2022/11/19 09:51:41;;;;;;;28.98;17.82;;;;;;;-0.42;70.58;99983.90;1724279;83;25522;-63
2022/11/19 09:54:17;;;;;;;28.67;17.40;;;;;;;-0.45;70.30;99988.89;1723920;83;26196;-62
2022/11/19 09:56:46;;;;;;;28.55;16.57;;;;;;;-0.53;70.24;99987.44;1724349;83;25638;-62
2022/11/19 09:59:26;;;;;;;29.60;17.37;;;;;;;-0.60;70.15;99989.46;1724613;83;27304;-62
2022/11/19 10:01:54;;;;;;;31.82;16.52;;;;;;;-0.65;70.42;99989.38;1724456;83;25496;-62
2022/11/19 10:04:27;;;;;;;33.78;18.60;;;;;;;-0.69;70.50;99990.92;1724457;83;25682;-62
2022/11/19 10:07:25;;;;;;;33.40;17.32;;;;;;;-0.72;70.56;99998.04;1724409;83;27566;-62
2022/11/19 10:10:24;;;;;;;26.10;13.13;;;;;;;-0.81;70.21;99987.81;1724523;83;25520;-60
2022/11/19 10:13:19;;;;;;;33.23;19.15;;;;;;;-0.85;70.43;99997.31;1724499;83;27519;-64
2022/11/19 10:16:09;;;;;;;36.08;18.20;;;;;;;-0.85;70.64;99997.81;1728828;82;25612;-64
2022/11/19 10:19:03;;;;;;;36.28;19.15;;;;;;;-0.90;70.57;99996.41;1732178;82;25538;-66
2022/11/19 10:21:53;;;;;;;34.38;18.23;;;;;;;-0.91;71.18;99998.80;1733082;82;25558;-65
2022/11/19 10:24:28;;;;;;;34.92;16.93;;;;;;;-0.96;71.10;99991.54;1763921;81;25468;-65
2022/11/19 10:26:59;;;;;;;38.75;22.82;;;;;;;-1.02;71.32;99991.16;1762373;81;27398;-66
2022/11/19 10:29:29;;;;;;;35.85;21.37;;;;;;;-1.06;71.41;99991.37;1763802;80;25384;-65
2022/11/19 10:32:01;;;;;;;39.45;22.75;;;;;;;-1.08;71.53;99991.61;1737788;81;25627;-65
2022/11/19 10:34:34;;;;;;;33.50;19.32;;;;;;;-1.11;71.38;99999.24;1759735;81;25613;-65
2022/11/19 10:37:06;;;;;;;35.68;19.35;;;;;;;-1.18;71.14;99998.06;1763702;81;25459;-64
2022/11/19 10:39:55;;;;;;;37.45;20.32;;;;;;;-1.26;71.06;99999.27;1763449;81;27346;-65
2022/11/19 10:42:29;;;;;;;35.85;20.55;;;;;;;-1.33;71.11;99991.95;1717507;82;25523;-65
2022/11/19 10:45:17;;;;;;;36.60;20.23;;;;;;;-1.37;71.27;99993.48;1733050;82;25596;-65
2022/11/19 10:48:01;;;;;;;37.45;20.10;;;;;;;-1.40;71.60;99997.39;1732947;82;25571;-66
2022/11/19 10:50:27;;;;;;;35.63;20.23;;;;;;;-1.39;71.92;100000.88;1730592;81;25895;-65
2022/11/19 10:53:02;;;;;;;37.55;19.40;;;;;;;-1.39;71.92;100005.65;1733037;82;27722;-65
2022/11/19 10:55:38;;;;;;;36.05;19.90;;;;;;;-1.39;72.01;100003.00;1710733;82;25490;-65
2022/11/19 10:58:28;;;;;;;38.60;20.20;;;;;;;-1.35;72.45;99999.34;1733211;82;25488;-64
2022/11/19 11:00:57;;;;;;;;;;;;;;;-1.16;74.06;100006.58;1735798;82;26135;-64
2022/11/19 11:03:33;;;;;;;35.83;18.80;;;;;;;-0.89;73.62;100005.99;1733237;82;25510;-64
2022/11/19 11:06:08;;;;;;;33.73;16.95;;;;;;;-0.69;74.52;100012.97;1733034;82;28048;-64
2022/11/19 11:08:55;;;;;;;33.88;17.82;;;;;;;-0.35;74.29;100008.19;1733000;82;25585;-64
2022/11/19 11:17:25;;;;;;;34.98;20.85;;;;;;;0.31;72.54;100014.39;1754139;81;25617;-66
2022/11/19 11:20:19;;;;;;;39.95;20.25;;;;;;;0.55;71.07;100013.60;1702732;83;28143;-63
2022/11/19 11:22:49;;;;;;;31.68;17.98;;;;;;;0.89;73.38;100006.77;1688727;84;25659;-64
2022/11/19 11:25:27;;;;;;;;;;;;;;;1.81;74.01;100011.23;1702635;84;25673;-64
2022/11/19 11:28:16;;;;;;;30.12;15.98;;;;;;;2.46;72.24;100008.35;1700040;84;25540;-65
2022/11/19 11:30:57;;;;;;;;;;;;;;;3.05;73.09;100005.28;1702704;84;25681;-65
2022/11/19 11:33:32;;;;;;;28.17;16.50;;;;;;;3.48;67.93;100010.37;1700179;84;25877;-64
2022/11/19 11:36:12;;;;;;;28.05;17.87;;;;;;;3.31;65.89;100020.80;1700079;84;25721;-67
2022/11/19 11:38:46;;;;;;;27.75;18.75;;;;;;;2.94;63.89;100022.36;1700175;84;25545;-67
2022/11/19 11:41:19;;;;;;;29.02;18.27;;;;;;;2.51;63.03;100020.38;1700115;84;25684;-69
2022/11/19 11:44:02;;;;;;;31.93;18.80;;;;;;;2.15;63.16;100024.23;1696749;84;25729;-70
2022/11/19 11:46:46;;;;;;;27.27;18.12;;;;;;;1.81;63.06;100024.03;1700177;84;27418;-67
2022/11/19 11:49:40;;;;;;;29.45;19.48;;;;;;;1.51;63.05;100030.48;1698888;84;25504;-68
2022/11/19 11:52:24;;;;;;;30.12;19.23;;;;;;;1.13;63.08;100037.63;1700270;84;25584;-66
2022/11/19 11:55:08;;;;;;;30.35;20.10;;;;;;;0.76;63.41;100044.44;1699670;84;27491;-67
2022/11/19 11:57:56;;;;;;;39.50;21.40;;;;;;;0.47;63.99;100035.33;1754607;81;25712;-67
2022/11/19 12:00:40;;;;;;;31.35;20.35;;;;;;;0.27;64.66;100035.88;1760735;81;27466;-67
2022/11/19 12:03:15;;;;;;;34.78;20.15;;;;;;;0.09;65.10;100038.84;1760657;81;25627;-67